Time;durP1;ratioP1;P1;durP2;ratioP2;P2;SDS_P1;SDS_P2;PMS_P1;PMS_P2;Temp;Humidity;BMP_temperature;BMP_pressure;BME280_temperature;BME280_humidity;BME280_pressure;Samples;Min_cycle;Max_cycle;Signal;HPM_P1;HPM_P2
2021/01/10 00:00:05;;;;;;;8.80;3.83;;;0.70;99.90;;;;;;5073318;28;20696;-70
2021/01/10 00:02:32;;;;;;;9.85;3.58;;;0.70;99.90;;;;;;5079684;28;20660;-70
2021/01/10 00:04:58;;;;;;;11.23;3.85;;;0.70;99.90;;;;;;5080205;28;20297;-70
2021/01/10 00:07:26;;;;;;;4.88;3.28;;;0.60;99.90;;;;;;5080155;28;20309;-70
2021/01/10 00:09:53;;;;;;;7.78;4.25;;;0.60;99.90;;;;;;5079806;28;20219;-70
2021/01/10 00:12:23;;;;;;;12.98;4.47;;;0.60;99.90;;;;;;5080092;28;20204;-70
2021/01/10 00:14:50;;;;;;;8.05;5.78;;;0.70;99.90;;;;;;5080210;28;20214;-70
2021/01/10 00:17:16;;;;;;;10.32;5.03;;;0.60;99.90;;;;;;5079822;28;20226;-69
2021/01/10 00:19:43;;;;;;;12.63;6.20;;;0.60;99.90;;;;;;5080028;28;20222;-70
2021/01/10 00:22:11;;;;;;;12.63;5.78;;;0.60;99.90;;;;;;5080060;28;20559;-69
2021/01/10 00:24:39;;;;;;;11.45;6.40;;;0.60;99.90;;;;;;5080060;28;20251;-70
2021/01/10 00:27:07;;;;;;;8.60;6.05;;;0.60;99.90;;;;;;5079492;28;20210;-70
2021/01/10 00:29:34;;;;;;;9.57;5.63;;;0.60;99.90;;;;;;5079955;28;20249;-70
2021/01/10 00:32:01;;;;;;;10.98;5.10;;;0.50;99.90;;;;;;5079917;28;20205;-70
2021/01/10 00:34:27;;;;;;;9.65;5.03;;;0.60;99.90;;;;;;5079753;28;20214;-70
2021/01/10 00:36:53;;;;;;;11.98;5.50;;;0.70;99.90;;;;;;5079528;28;20231;-69
2021/01/10 00:39:20;;;;;;;10.38;5.15;;;0.70;99.90;;;;;;5079608;28;20625;-70
2021/01/10 00:41:47;;;;;;;11.02;5.75;;;0.60;99.90;;;;;;5079885;28;20313;-70
2021/01/10 00:44:13;;;;;;;10.75;5.60;;;0.60;99.90;;;;;;5079839;28;20294;-69
2021/01/10 00:46:40;;;;;;;10.77;5.70;;;0.50;99.90;;;;;;5079700;28;20203;-69
2021/01/10 00:49:06;;;;;;;13.85;6.47;;;0.40;99.90;;;;;;5079749;28;20317;-69
2021/01/10 00:51:32;;;;;;;16.73;6.63;;;0.40;99.90;;;;;;5079843;28;20572;-70
2021/01/10 00:53:59;;;;;;;15.23;6.88;;;0.50;99.90;;;;;;5079702;28;20203;-70
2021/01/10 00:56:25;;;;;;;13.02;8.27;;;0.60;99.90;;;;;;5079426;28;20219;-69
2021/01/10 00:58:52;;;;;;;14.48;7.30;;;0.70;99.90;;;;;;5079563;28;20653;-70
2021/01/10 01:01:19;;;;;;;12.55;6.32;;;0.70;99.90;;;;;;5079772;28;20202;-70
2021/01/10 01:03:48;;;;;;;16.90;7.68;;;0.70;99.90;;;;;;5079652;28;20579;-70
2021/01/10 01:06:14;;;;;;;17.92;8.20;;;0.90;99.90;;;;;;5079366;28;20330;-69
2021/01/10 01:08:42;;;;;;;16.10;8.07;;;1.00;99.90;;;;;;5079521;28;20229;-70
2021/01/10 01:11:09;;;;;;;16.23;6.90;;;0.90;99.90;;;;;;5079621;28;20252;-70
2021/01/10 01:13:35;;;;;;;16.75;8.35;;;0.90;99.90;;;;;;5075925;28;20199;-70
2021/01/10 01:16:06;;;;;;;17.60;8.57;;;0.90;99.90;;;;;;5076102;28;20271;-69
2021/01/10 01:18:33;;;;;;;17.42;7.05;;;1.00;99.90;;;;;;5076313;28;20222;-70
2021/01/10 01:20:59;;;;;;;13.30;7.97;;;1.00;99.90;;;;;;5076873;28;20249;-69
2021/01/10 01:23:25;;;;;;;12.45;7.45;;;1.00;99.90;;;;;;5076220;28;20211;-70
2021/01/10 01:25:52;;;;;;;13.93;7.47;;;0.90;99.90;;;;;;5076584;28;20286;-69
2021/01/10 01:28:19;;;;;;;17.42;8.27;;;0.90;99.90;;;;;;5075869;28;20306;-69
2021/01/10 01:30:45;;;;;;;14.95;7.47;;;0.80;99.90;;;;;;5076145;28;20203;-69
2021/01/10 01:33:12;;;;;;;13.00;8.40;;;1.00;99.90;;;;;;5075894;28;20290;-69
2021/01/10 01:35:39;;;;;;;19.52;9.38;;;1.00;99.90;;;;;;5075584;28;20700;-69
2021/01/10 01:38:05;;;;;;;14.43;6.50;;;0.90;99.90;;;;;;5075622;28;20290;-69
2021/01/10 01:40:31;;;;;;;13.35;8.20;;;0.90;99.90;;;;;;5075564;28;20674;-70
2021/01/10 01:42:58;;;;;;;13.40;8.10;;;0.90;99.90;;;;;;5075806;28;20253;-70
2021/01/10 01:45:24;;;;;;;17.25;8.50;;;1.00;99.90;;;;;;5075574;28;20271;-69
2021/01/10 01:47:51;;;;;;;14.52;7.68;;;0.90;99.90;;;;;;5075632;28;20286;-69
2021/01/10 01:50:19;;;;;;;15.23;8.85;;;0.80;99.90;;;;;;5075721;28;20224;-69
2021/01/10 01:52:45;;;;;;;15.98;7.55;;;0.80;99.90;;;;;;5075583;28;20590;-70
2021/01/10 01:55:12;;;;;;;16.45;7.93;;;0.80;99.90;;;;;;5075965;28;20205;-70
2021/01/10 01:57:39;;;;;;;13.93;7.60;;;0.70;99.90;;;;;;5075323;28;20203;-70
2021/01/10 02:00:07;;;;;;;20.75;7.82;;;0.60;99.90;;;;;;5075487;28;20230;-70
2021/01/10 02:02:34;;;;;;;14.88;6.88;;;0.60;99.90;;;;;;5075472;28;20565;-70
2021/01/10 02:05:04;;;;;;;12.00;7.20;;;0.70;99.90;;;;;;5075489;28;20206;-69
2021/01/10 02:07:40;;;;;;;14.82;8.20;;;0.70;99.90;;;;;;5075067;28;20248;-70
2021/01/10 02:10:09;;;;;;;16.80;7.35;;;0.70;99.90;;;;;;5075433;28;20242;-70
2021/01/10 02:12:37;;;;;;;13.88;7.03;;;0.80;99.90;;;;;;5075092;28;20203;-70
2021/01/10 02:15:09;;;;;;;13.13;8.23;;;1.00;99.90;;;;;;5075068;28;20251;-70
2021/01/10 02:17:35;;;;;;;14.85;8.32;;;0.90;99.90;;;;;;5074849;28;20632;-69
2021/01/10 02:20:07;;;;;;;11.18;6.22;;;1.00;99.90;;;;;;5074674;28;20227;-70
2021/01/10 02:22:42;;;;;;;10.95;7.63;;;1.00;99.90;;;;;;5074769;28;20201;-70
2021/01/10 02:25:10;;;;;;;11.73;6.22;;;1.00;99.90;;;;;;5074576;28;20214;-69
2021/01/10 02:27:37;;;;;;;14.05;6.75;;;1.00;99.90;;;;;;5074384;28;20209;-70
2021/01/10 02:30:05;;;;;;;10.73;6.97;;;1.00;99.90;;;;;;5074782;28;20219;-70
2021/01/10 02:32:33;;;;;;;13.82;6.13;;;0.90;99.90;;;;;;5074475;28;20199;-69
2021/01/10 02:35:02;;;;;;;15.25;7.10;;;0.80;99.90;;;;;;5074862;28;20340;-69
2021/01/10 02:38:04;;;;;;;15.93;8.27;;;0.80;99.90;;;;;;5074449;28;20233;-69
2021/01/10 02:40:35;;;;;;;13.60;6.47;;;0.90;99.90;;;;;;5012641;28;20275;-69
2021/01/10 02:43:08;;;;;;;10.73;7.47;;;0.80;99.90;;;;;;5064397;28;20682;-70
2021/01/10 02:45:35;;;;;;;12.35;5.85;;;0.70;99.90;;;;;;5074158;28;20199;-69
2021/01/10 02:48:02;;;;;;;9.85;6.55;;;0.60;99.90;;;;;;5074501;28;20202;-70
2021/01/10 02:50:29;;;;;;;13.43;6.60;;;0.40;99.90;;;;;;5074470;28;20252;-69
2021/01/10 02:52:56;;;;;;;18.15;5.93;;;0.40;99.90;;;;;;5074355;28;20268;-69
2021/01/10 02:55:22;;;;;;;16.80;7.13;;;0.40;99.90;;;;;;5074157;28;20208;-69
2021/01/10 02:57:53;;;;;;;12.00;6.40;;;0.30;99.90;;;;;;5074258;28;20202;-69
2021/01/10 03:00:23;;;;;;;7.60;5.10;;;0.30;99.90;;;;;;5074277;28;20227;-69
2021/01/10 03:02:51;;;;;;;13.77;5.95;;;0.30;99.90;;;;;;5074263;28;20350;-69
2021/01/10 03:05:18;;;;;;;9.95;6.63;;;0.30;99.90;;;;;;5074230;28;20203;-69
2021/01/10 03:07:45;;;;;;;8.95;5.43;;;0.30;99.90;;;;;;5074009;28;20217;-69
2021/01/10 03:10:13;;;;;;;13.10;6.13;;;0.20;99.90;;;;;;5074108;28;20276;-69
2021/01/10 03:12:41;;;;;;;12.13;6.03;;;0.30;99.90;;;;;;5074054;28;20211;-69
2021/01/10 03:15:10;;;;;;;8.50;4.75;;;0.30;99.90;;;;;;5073970;28;20203;-69
2021/01/10 03:17:38;;;;;;;10.73;5.68;;;0.20;99.90;;;;;;5073751;28;20710;-69
2021/01/10 03:20:06;;;;;;;13.43;5.47;;;0.20;99.90;;;;;;5073587;28;20566;-69
2021/01/10 03:22:32;;;;;;;8.25;5.63;;;0.30;99.90;;;;;;5073814;28;20251;-69
2021/01/10 03:24:59;;;;;;;11.30;6.10;;;0.10;99.90;;;;;;5073826;28;20211;-69
2021/01/10 03:27:26;;;;;;;7.20;5.25;;;0.20;99.90;;;;;;5073312;28;20672;-69
2021/01/10 03:29:53;;;;;;;9.23;5.53;;;0.20;99.90;;;;;;5073762;28;20767;-69
2021/01/10 03:32:20;;;;;;;9.75;4.80;;;0.10;99.90;;;;;;5073702;28;20559;-69
2021/01/10 03:34:46;;;;;;;5.78;2.97;;;0.00;99.90;;;;;;5073552;28;20209;-69
2021/01/10 03:37:12;;;;;;;6.53;4.68;;;-0.10;99.90;;;;;;5072948;28;20315;-69
2021/01/10 03:39:39;;;;;;;9.45;4.60;;;-0.20;99.90;;;;;;5073308;28;20225;-69
2021/01/10 03:42:06;;;;;;;7.65;4.35;;;-0.10;99.90;;;;;;5073422;28;20202;-69
2021/01/10 03:44:32;;;;;;;7.15;3.53;;;-0.10;99.90;;;;;;5073880;28;20209;-69
2021/01/10 03:46:59;;;;;;;6.28;4.05;;;-0.10;99.90;;;;;;5073270;28;20205;-70
2021/01/10 03:49:26;;;;;;;10.00;6.32;;;-0.10;99.90;;;;;;5073452;28;20305;-70
2021/01/10 03:51:52;;;;;;;9.85;4.53;;;-0.20;99.90;;;;;;5073347;28;20660;-70
2021/01/10 03:54:19;;;;;;;9.68;4.45;;;-0.20;99.90;;;;;;5073551;28;20199;-70
2021/01/10 03:56:45;;;;;;;9.52;4.18;;;-0.20;99.90;;;;;;5073414;28;20329;-70
2021/01/10 03:59:12;;;;;;;10.63;6.82;;;0.00;99.90;;;;;;5073194;28;20314;-69
2021/01/10 04:01:38;;;;;;;12.65;6.28;;;0.10;99.90;;;;;;5073456;28;20575;-70
2021/01/10 04:04:04;;;;;;;17.90;7.00;;;0.10;99.90;;;;;;5073302;28;20293;-70
2021/01/10 04:06:32;;;;;;;11.50;6.68;;;0.10;99.90;;;;;;5073573;28;20201;-70
2021/01/10 04:08:58;;;;;;;8.80;5.75;;;0.00;99.90;;;;;;5073293;28;20222;-70
2021/01/10 04:11:24;;;;;;;8.82;5.55;;;0.10;99.90;;;;;;5073335;28;20293;-69
2021/01/10 04:13:51;;;;;;;13.02;6.95;;;0.20;99.90;;;;;;5073356;28;20203;-70
2021/01/10 04:16:17;;;;;;;11.15;6.10;;;0.30;99.90;;;;;;5072943;28;20223;-69
2021/01/10 04:18:44;;;;;;;12.27;5.47;;;0.30;99.90;;;;;;5073269;28;20771;-70
2021/01/10 04:21:10;;;;;;;13.00;6.32;;;0.20;99.90;;;;;;5073093;28;20742;-69
2021/01/10 04:23:37;;;;;;;9.05;5.30;;;0.30;99.90;;;;;;5073339;28;20248;-70
2021/01/10 04:26:04;;;;;;;9.32;5.63;;;0.40;99.90;;;;;;5073040;28;20586;-70
2021/01/10 04:28:30;;;;;;;8.48;4.80;;;0.20;99.90;;;;;;5072977;28;20234;-70
2021/01/10 04:30:59;;;;;;;10.77;5.45;;;0.10;99.90;;;;;;5072930;28;20735;-70
2021/01/10 04:33:25;;;;;;;10.13;5.80;;;-0.10;99.90;;;;;;5072964;28;20209;-69
2021/01/10 04:35:52;;;;;;;11.13;5.53;;;-0.30;99.90;;;;;;5072720;28;20309;-69
2021/01/10 04:38:18;;;;;;;11.52;4.38;;;-0.40;99.90;;;;;;5073077;28;20293;-69
2021/01/10 04:40:45;;;;;;;7.28;4.68;;;-0.50;99.90;;;;;;5072859;28;20207;-69
2021/01/10 04:43:12;;;;;;;8.23;4.75;;;-0.50;99.90;;;;;;5072928;28;20203;-70
2021/01/10 04:45:39;;;;;;;6.72;4.47;;;-0.40;99.90;;;;;;5072901;28;20207;-69
2021/01/10 04:48:07;;;;;;;7.15;5.00;;;-0.30;99.90;;;;;;5074263;28;20571;-70
2021/01/10 04:50:34;;;;;;;10.65;5.28;;;-0.30;99.90;;;;;;5076584;28;20668;-69
2021/01/10 04:53:04;;;;;;;15.27;5.50;;;-0.30;99.90;;;;;;5076789;28;20211;-70
2021/01/10 04:55:31;;;;;;;16.25;4.95;;;-0.20;99.90;;;;;;5076468;28;20221;-68
2021/01/10 04:58:03;;;;;;;10.07;5.60;;;-0.20;99.90;;;;;;5076599;28;20210;-70
2021/01/10 05:00:31;;;;;;;9.73;5.07;;;-0.20;99.90;;;;;;5076291;28;20206;-69
2021/01/10 05:03:04;;;;;;;8.30;3.75;;;-0.40;99.90;;;;;;5076495;28;20214;-69
2021/01/10 05:05:34;;;;;;;9.50;5.57;;;-0.50;99.90;;;;;;5076189;28;20720;-69
2021/01/10 05:08:00;;;;;;;5.38;4.32;;;-0.50;99.90;;;;;;5076413;28;20208;-69
2021/01/10 05:10:26;;;;;;;10.20;5.10;;;-0.40;99.90;;;;;;5076325;28;20270;-69
2021/01/10 05:12:53;;;;;;;9.18;4.28;;;-0.40;99.90;;;;;;5076277;28;20610;-70
2021/01/10 05:15:20;;;;;;;8.32;4.55;;;-0.30;99.90;;;;;;5076136;28;20289;-69
2021/01/10 05:17:53;;;;;;;8.55;5.03;;;-0.10;99.90;;;;;;5076105;28;20229;-69
2021/01/10 05:20:20;;;;;;;12.15;5.65;;;-0.10;99.90;;;;;;5076249;28;20222;-69
2021/01/10 05:22:49;;;;;;;11.90;5.95;;;0.00;99.90;;;;;;5076266;28;20207;-70
2021/01/10 05:25:15;;;;;;;6.53;4.20;;;0.20;99.90;;;;;;5076142;28;20263;-70
2021/01/10 05:27:44;;;;;;;7.45;4.30;;;0.20;99.90;;;;;;5075821;28;20213;-69
2021/01/10 05:30:12;;;;;;;8.32;4.22;;;0.10;99.90;;;;;;5076081;28;20254;-69
2021/01/10 05:32:39;;;;;;;9.35;4.90;;;0.00;99.90;;;;;;5075960;28;20229;-69
2021/01/10 05:35:06;;;;;;;9.73;5.25;;;-0.10;99.90;;;;;;5075970;28;20202;-69
2021/01/10 05:37:33;;;;;;;10.95;4.90;;;-0.30;99.90;;;;;;5075488;28;20227;-69
2021/01/10 05:40:00;;;;;;;11.65;4.00;;;-0.30;99.90;;;;;;5075739;28;20627;-70
2021/01/10 05:42:29;;;;;;;15.27;6.03;;;-0.20;99.90;;;;;;5075932;28;20202;-70
2021/01/10 05:44:56;;;;;;;12.45;5.55;;;0.00;99.90;;;;;;5075899;28;20203;-69
2021/01/10 05:47:22;;;;;;;7.35;4.95;;;0.00;99.90;;;;;;5075662;28;20206;-69
2021/01/10 05:49:50;;;;;;;8.57;4.30;;;-0.10;99.90;;;;;;5075604;28;20313;-69
2021/01/10 05:52:17;;;;;;;10.05;5.95;;;-0.30;99.90;;;;;;5075681;28;20202;-69
2021/01/10 05:54:45;;;;;;;5.15;4.18;;;-0.20;99.90;;;;;;5075444;28;20679;-69
2021/01/10 05:57:14;;;;;;;10.60;4.65;;;-0.10;99.90;;;;;;5075382;28;20230;-69
2021/01/10 05:59:47;;;;;;;10.13;4.72;;;0.00;99.90;;;;;;5075108;28;20226;-69
2021/01/10 06:02:14;;;;;;;9.98;5.00;;;0.10;99.90;;;;;;5075686;28;20206;-69
2021/01/10 06:04:40;;;;;;;9.05;5.63;;;0.20;99.90;;;;;;5075541;28;20294;-70
2021/01/10 06:07:08;;;;;;;19.67;6.50;;;0.30;99.90;;;;;;5075288;28;20252;-69
2021/01/10 06:09:47;;;;;;;9.25;4.60;;;0.30;99.90;;;;;;5075492;28;20310;-70
2021/01/10 06:12:20;;;;;;;7.90;5.60;;;0.40;99.90;;;;;;5075228;28;20285;-69
2021/01/10 06:14:47;;;;;;;14.38;4.72;;;0.40;99.90;;;;;;5075343;28;20206;-69
2021/01/10 06:17:17;;;;;;;11.40;4.53;;;0.30;99.90;;;;;;5074823;28;20313;-69
2021/01/10 06:19:45;;;;;;;13.43;4.78;;;0.30;99.90;;;;;;5075242;28;20226;-69
2021/01/10 06:22:16;;;;;;;11.80;6.53;;;0.30;99.90;;;;;;5075043;28;20661;-69
2021/01/10 06:24:47;;;;;;;13.75;6.65;;;0.10;99.90;;;;;;5075175;28;20207;-69
2021/01/10 06:27:21;;;;;;;8.35;4.40;;;-0.10;99.90;;;;;;5074686;28;20202;-70
2021/01/10 06:29:54;;;;;;;9.55;5.20;;;-0.30;99.90;;;;;;5074802;28;20586;-69
2021/01/10 06:32:24;;;;;;;9.50;5.03;;;-0.40;99.90;;;;;;5074984;28;20336;-69
2021/01/10 06:34:51;;;;;;;7.20;4.60;;;-0.30;99.90;;;;;;5075258;28;20310;-70
2021/01/10 06:37:19;;;;;;;7.55;4.53;;;-0.20;99.90;;;;;;5074499;28;20223;-70
2021/01/10 06:39:46;;;;;;;6.93;3.90;;;-0.20;99.90;;;;;;5074724;28;20726;-69
2021/01/10 06:42:14;;;;;;;7.43;4.88;;;-0.10;99.90;;;;;;5074740;28;20229;-70
2021/01/10 06:44:46;;;;;;;10.43;5.32;;;0.10;99.90;;;;;;5074635;28;20199;-70
2021/01/10 06:47:17;;;;;;;10.23;5.65;;;0.20;99.90;;;;;;5074589;28;20608;-70
2021/01/10 06:49:44;;;;;;;9.10;4.25;;;0.20;99.90;;;;;;5074437;28;20227;-70
2021/01/10 06:52:11;;;;;;;7.97;4.50;;;0.20;99.90;;;;;;5074534;28;20213;-70
2021/01/10 06:54:43;;;;;;;12.05;4.35;;;0.20;99.90;;;;;;5074726;28;20590;-69
2021/01/10 06:57:09;;;;;;;11.90;5.50;;;0.30;99.90;;;;;;5074232;28;20314;-70
2021/01/10 06:59:58;;;;;;;9.23;5.68;;;0.30;99.90;;;;;;5074430;28;20229;-70
2021/01/10 07:02:25;;;;;;;10.15;5.88;;;0.20;99.90;;;;;;5074160;28;20187;-70
2021/01/10 07:05:09;;;;;;;6.35;4.35;;;0.10;99.90;;;;;;5074063;28;20205;-70
2021/01/10 07:07:41;;;;;;;12.95;5.18;;;0.00;99.90;;;;;;5074157;28;20203;-69
2021/01/10 07:10:11;;;;;;;10.48;4.60;;;0.10;99.90;;;;;;5073672;28;20222;-70
2021/01/10 07:12:38;;;;;;;7.45;4.90;;;0.10;99.90;;;;;;5074201;28;20213;-69
2021/01/10 07:15:31;;;;;;;8.65;4.60;;;0.20;99.90;;;;;;5073909;28;20284;-70
2021/01/10 07:18:16;;;;;;;12.10;6.47;;;0.20;99.90;;;;;;5038216;28;20228;-70
2021/01/10 07:20:44;;;;;;;11.43;4.68;;;0.20;99.90;;;;;;5074281;28;20575;-70
2021/01/10 07:23:30;;;;;;;9.80;5.35;;;0.10;99.90;;;;;;5073874;28;20660;-69
2021/01/10 07:25:58;;;;;;;10.95;5.97;;;0.10;99.90;;;;;;5073681;28;20206;-70
2021/01/10 07:28:42;;;;;;;11.38;4.72;;;0.00;99.90;;;;;;5073554;28;20230;-69
2021/01/10 07:31:14;;;;;;;10.05;5.05;;;0.00;99.90;;;;;;5073964;28;20268;-69
2021/01/10 07:33:41;;;;;;;11.27;5.50;;;0.00;99.90;;;;;;5073782;28;20210;-70
2021/01/10 07:36:07;;;;;;;8.80;4.10;;;0.00;99.90;;;;;;5073531;28;20229;-69
2021/01/10 07:38:36;;;;;;;10.98;5.70;;;-0.10;99.90;;;;;;5073616;28;20697;-70
2021/01/10 07:41:22;;;;;;;12.25;6.03;;;-0.10;99.90;;;;;;5073747;28;20211;-69
2021/01/10 07:43:53;;;;;;;8.65;4.90;;;-0.10;99.90;;;;;;5073693;28;20291;-70
2021/01/10 07:46:59;;;;;;;9.30;6.10;;;-0.10;99.90;;;;;;5073476;28;20205;-70
2021/01/10 07:49:27;;;;;;;9.73;4.85;;;-0.20;99.90;;;;;;5073690;28;20630;-70
2021/01/10 07:51:54;;;;;;;12.00;5.60;;;-0.20;99.90;;;;;;5073503;28;20209;-70
2021/01/10 07:54:48;;;;;;;8.85;4.75;;;-0.20;99.90;;;;;;5073563;28;20216;-70
2021/01/10 07:57:33;;;;;;;9.02;4.47;;;0.10;99.90;;;;;;5073146;28;20710;-70
2021/01/10 08:00:11;;;;;;;8.02;3.97;;;0.10;99.90;;;;;;5073631;28;20353;-70
2021/01/10 08:02:59;;;;;;;8.85;4.85;;;0.10;99.90;;;;;;5073476;28;20576;-70
2021/01/10 08:05:28;;;;;;;12.32;6.47;;;0.10;99.90;;;;;;5073552;28;20210;-70
2021/01/10 08:08:06;;;;;;;10.10;4.70;;;0.20;99.90;;;;;;5073212;28;20698;-70
2021/01/10 08:10:45;;;;;;;11.98;6.07;;;0.20;99.90;;;;;;5073586;28;20525;-70
2021/01/10 08:13:29;;;;;;;11.10;4.57;;;0.20;99.90;;;;;;5073290;28;20259;-70
2021/01/10 08:15:57;;;;;;;11.73;6.53;;;0.20;99.90;;;;;;5073100;28;20207;-70
2021/01/10 08:18:27;;;;;;;11.30;5.20;;;0.30;99.90;;;;;;5073298;28;20203;-70
2021/01/10 08:20:54;;;;;;;14.35;5.70;;;0.20;99.90;;;;;;5073362;28;20203;-70
2021/01/10 08:23:20;;;;;;;9.77;5.55;;;0.20;99.90;;;;;;5077064;28;20202;-70
2021/01/10 08:25:49;;;;;;;10.30;5.43;;;0.20;99.90;;;;;;5077159;28;20202;-69
2021/01/10 08:28:17;;;;;;;12.00;4.88;;;0.20;99.90;;;;;;5077062;28;20218;-70
2021/01/10 08:30:45;;;;;;;8.52;5.78;;;0.20;99.90;;;;;;5076936;28;20261;-70
2021/01/10 08:33:17;;;;;;;11.77;6.13;;;0.30;99.90;;;;;;5077220;28;20608;-70
2021/01/10 08:35:44;;;;;;;9.63;4.80;;;0.30;99.90;;;;;;5077029;28;20259;-70
2021/01/10 08:38:10;;;;;;;15.43;6.53;;;0.40;99.90;;;;;;5076803;28;20233;-70
2021/01/10 08:40:37;;;;;;;11.80;5.97;;;0.60;99.90;;;;;;5077162;28;20199;-70
2021/01/10 08:43:04;;;;;;;10.32;5.25;;;0.60;99.90;;;;;;5076996;28;20198;-70
2021/01/10 08:45:31;;;;;;;8.48;5.40;;;0.70;99.90;;;;;;5076775;28;20198;-69
2021/01/10 08:48:01;;;;;;;11.93;6.20;;;0.80;99.90;;;;;;5076719;28;20202;-70
2021/01/10 08:50:38;;;;;;;12.10;6.10;;;0.90;99.90;;;;;;5076917;28;20219;-70
2021/01/10 08:53:05;;;;;;;11.77;5.20;;;0.90;99.90;;;;;;5076656;28;20202;-70
2021/01/10 08:55:36;;;;;;;12.73;6.38;;;1.00;99.90;;;;;;5076569;28;20229;-70
2021/01/10 08:58:04;;;;;;;14.27;5.80;;;1.20;99.90;;;;;;5076430;28;20757;-70
2021/01/10 09:00:30;;;;;;;11.27;6.10;;;1.30;99.90;;;;;;5076672;28;20583;-70
2021/01/10 09:03:12;;;;;;;14.60;5.70;;;1.40;99.90;;;;;;5076716;28;20603;-71
2021/01/10 09:05:39;;;;;;;10.70;4.95;;;1.60;99.90;;;;;;5076549;28;20568;-70
2021/01/10 09:08:11;;;;;;;6.97;5.28;;;1.70;99.90;;;;;;5076537;28;20568;-71
2021/01/10 09:10:46;;;;;;;9.50;6.38;;;1.70;99.90;;;;;;5076545;28;20214;-70
2021/01/10 09:13:18;;;;;;;11.43;5.38;;;1.60;99.90;;;;;;5076612;28;20199;-70
2021/01/10 09:15:45;;;;;;;9.80;6.20;;;1.70;99.90;;;;;;5076286;28;20213;-70
2021/01/10 09:18:19;;;;;;;9.85;6.72;;;1.90;99.90;;;;;;5076321;28;20321;-70
2021/01/10 09:20:51;;;;;;;17.02;5.60;;;1.80;99.90;;;;;;5076403;28;20195;-70
2021/01/10 09:23:19;;;;;;;9.02;5.50;;;1.80;99.90;;;;;;5076338;28;20209;-70
2021/01/10 09:25:46;;;;;;;9.98;5.80;;;1.90;99.90;;;;;;5076157;28;20293;-70
2021/01/10 09:28:14;;;;;;;15.30;7.93;;;2.00;99.90;;;;;;5075983;28;20302;-70
2021/01/10 09:30:42;;;;;;;9.63;5.45;;;2.00;99.90;;;;;;5075912;28;20732;-71
2021/01/10 09:33:09;;;;;;;13.57;6.95;;;2.00;99.90;;;;;;5075382;28;20203;-70
2021/01/10 09:35:37;;;;;;;8.90;4.47;;;1.80;99.90;;;;;;5075722;28;20248;-70
2021/01/10 09:38:11;;;;;;;11.52;6.50;;;1.60;99.90;;;;;;5075955;28;20317;-70
2021/01/10 09:40:38;;;;;;;8.60;5.13;;;1.40;99.90;;;;;;5076093;28;20187;-71
2021/01/10 09:43:04;;;;;;;9.35;5.03;;;1.30;99.90;;;;;;5075928;28;20202;-70
2021/01/10 09:45:35;;;;;;;10.57;5.95;;;1.20;99.90;;;;;;5075732;28;20613;-69
2021/01/10 09:48:13;;;;;;;13.25;5.95;;;1.20;99.90;;;;;;5075836;28;20206;-70
2021/01/10 09:50:40;;;;;;;9.35;4.85;;;1.00;99.90;;;;;;5075528;28;20186;-70
2021/01/10 09:53:07;;;;;;;9.95;5.43;;;0.90;99.90;;;;;;5075883;28;20681;-70
2021/01/10 09:55:45;;;;;;;9.95;5.10;;;0.90;99.90;;;;;;5075510;28;20568;-70
2021/01/10 09:58:15;;;;;;;14.07;6.20;;;1.10;99.90;;;;;;5075396;28;20230;-70
2021/01/10 10:00:55;;;;;;;11.23;5.30;;;1.20;99.90;;;;;;5075639;28;20252;-70
2021/01/10 10:03:22;;;;;;;14.50;6.70;;;1.40;99.90;;;;;;5075610;28;20207;-70
2021/01/10 10:05:57;;;;;;;6.55;4.13;;;1.50;99.90;;;;;;5075376;28;20207;-69
2021/01/10 10:08:23;;;;;;;6.70;4.30;;;1.50;99.90;;;;;;5075344;28;20247;-70
2021/01/10 10:10:49;;;;;;;13.85;6.95;;;1.50;99.90;;;;;;5075124;28;20293;-70
2021/01/10 10:13:24;;;;;;;11.27;6.40;;;1.30;99.90;;;;;;5075359;28;20203;-70
2021/01/10 10:15:54;;;;;;;10.40;5.22;;;1.00;99.90;;;;;;5075122;28;20594;-69
2021/01/10 10:18:21;;;;;;;14.63;5.50;;;0.90;99.90;;;;;;5075049;28;20226;-70
2021/01/10 10:20:48;;;;;;;9.25;4.32;;;1.00;99.90;;;;;;5075234;28;20229;-70
2021/01/10 10:23:16;;;;;;;12.23;5.82;;;1.00;99.90;;;;;;5075144;28;20565;-70
2021/01/10 10:25:44;;;;;;;11.45;5.30;;;1.20;99.90;;;;;;5074884;28;20205;-70
2021/01/10 10:28:11;;;;;;;15.02;4.88;;;1.20;99.90;;;;;;5074723;28;20228;-69
2021/01/10 10:30:38;;;;;;;12.65;6.32;;;1.10;99.90;;;;;;5074709;28;20232;-70
2021/01/10 10:33:05;;;;;;;10.32;6.60;;;1.10;99.90;;;;;;5075021;28;20207;-70
2021/01/10 10:35:32;;;;;;;18.70;7.90;;;1.10;99.90;;;;;;5074648;28;20289;-70
2021/01/10 10:37:59;;;;;;;11.45;6.78;;;1.00;99.90;;;;;;5074637;28;20701;-70
2021/01/10 10:40:26;;;;;;;21.55;6.78;;;1.00;99.90;;;;;;5074740;28;20259;-70
2021/01/10 10:42:53;;;;;;;9.27;5.07;;;1.00;99.90;;;;;;5074512;28;20293;-70
2021/01/10 10:45:19;;;;;;;9.52;4.78;;;1.10;99.90;;;;;;5074457;28;20228;-70
2021/01/10 10:47:46;;;;;;;6.45;3.90;;;1.20;99.90;;;;;;5074292;28;20207;-70
2021/01/10 10:50:12;;;;;;;6.20;4.28;;;1.30;99.90;;;;;;5074211;28;20252;-70
2021/01/10 10:52:40;;;;;;;10.93;5.82;;;1.40;99.90;;;;;;5074513;28;20207;-70
2021/01/10 10:55:07;;;;;;;8.82;4.47;;;1.40;99.90;;;;;;5074278;28;20210;-70
2021/01/10 10:57:35;;;;;;;11.55;5.38;;;1.30;99.90;;;;;;5074274;28;20219;-70
2021/01/10 11:00:02;;;;;;;10.20;5.10;;;1.40;99.90;;;;;;5074693;28;20254;-70
2021/01/10 11:02:29;;;;;;;9.82;4.78;;;1.40;99.90;;;;;;5074259;28;20203;-70
2021/01/10 11:04:55;;;;;;;8.85;5.03;;;1.50;99.90;;;;;;5074273;28;20334;-70
2021/01/10 11:07:21;;;;;;;10.73;5.43;;;1.60;99.90;;;;;;5074184;28;20597;-70
2021/01/10 11:09:48;;;;;;;7.25;4.07;;;1.80;99.90;;;;;;5074273;28;20295;-70
2021/01/10 11:12:15;;;;;;;9.77;5.32;;;1.90;99.90;;;;;;5074007;28;20256;-70
2021/01/10 11:14:42;;;;;;;9.02;5.00;;;1.90;99.90;;;;;;5074140;28;20298;-70
2021/01/10 11:17:10;;;;;;;10.75;5.35;;;2.00;99.90;;;;;;5073676;28;20223;-70
2021/01/10 11:19:37;;;;;;;8.63;4.47;;;2.10;99.90;;;;;;5074024;28;20291;-70
2021/01/10 11:22:04;;;;;;;7.10;4.70;;;2.10;99.90;;;;;;5074012;28;20251;-70
2021/01/10 11:24:31;;;;;;;11.68;5.35;;;2.10;99.90;;;;;;5074001;28;20207;-70
2021/01/10 11:26:58;;;;;;;6.97;4.30;;;2.00;99.90;;;;;;5073660;28;20637;-70
2021/01/10 11:29:24;;;;;;;11.30;6.20;;;2.00;99.90;;;;;;5073853;28;20250;-70
2021/01/10 11:31:52;;;;;;;10.02;5.18;;;2.00;99.90;;;;;;5073861;28;20203;-70
2021/01/10 11:34:19;;;;;;;10.45;5.00;;;2.00;99.90;;;;;;5073607;28;20210;-70
2021/01/10 11:36:47;;;;;;;10.50;5.15;;;2.10;99.90;;;;;;5073271;28;20248;-70
2021/01/10 11:39:14;;;;;;;8.55;4.90;;;2.20;99.90;;;;;;5073620;28;20237;-70
2021/01/10 11:41:43;;;;;;;6.82;4.30;;;2.10;99.90;;;;;;5073791;28;20203;-70
2021/01/10 11:44:10;;;;;;;11.93;5.75;;;2.20;99.90;;;;;;5073695;28;20210;-70
2021/01/10 11:46:36;;;;;;;10.48;5.15;;;2.20;99.90;;;;;;5073507;28;20206;-70
2021/01/10 11:49:03;;;;;;;8.57;4.82;;;2.30;99.90;;;;;;5073674;28;20226;-70
2021/01/10 11:51:30;;;;;;;5.90;4.15;;;2.40;99.90;;;;;;5073656;28;20320;-70
2021/01/10 11:53:56;;;;;;;10.23;5.57;;;2.40;99.90;;;;;;5073613;28;20674;-70
2021/01/10 11:56:22;;;;;;;7.95;4.22;;;2.30;99.90;;;;;;5072763;28;20285;-70
2021/01/10 11:58:49;;;;;;;10.55;5.82;;;2.40;99.90;;;;;;5073523;28;20317;-70
2021/01/10 12:01:15;;;;;;;10.20;4.90;;;2.50;99.90;;;;;;5073324;28;20748;-70
2021/01/10 12:03:42;;;;;;;8.30;4.53;;;2.70;99.90;;;;;;5073561;28;20289;-70
2021/01/10 12:06:10;;;;;;;8.88;3.88;;;2.80;99.90;;;;;;5073271;28;20210;-70
2021/01/10 12:08:36;;;;;;;9.07;4.22;;;2.90;99.90;;;;;;5073258;28;20273;-70
2021/01/10 12:11:03;;;;;;;11.30;5.50;;;3.00;99.90;;;;;;5073566;28;20309;-70
2021/01/10 12:13:29;;;;;;;6.15;4.13;;;3.10;99.90;;;;;;5073448;28;20296;-70
2021/01/10 12:15:56;;;;;;;8.90;5.07;;;3.10;99.90;;;;;;5073223;28;20319;-70
2021/01/10 12:18:23;;;;;;;5.57;3.13;;;3.20;99.90;;;;;;5073320;28;20241;-70
2021/01/10 12:20:49;;;;;;;6.90;4.25;;;3.20;99.90;;;;;;5073415;28;20203;-70
2021/01/10 12:23:16;;;;;;;6.30;3.65;;;3.40;99.90;;;;;;5073525;28;20203;-70
2021/01/10 12:25:43;;;;;;;4.38;3.00;;;3.40;99.90;;;;;;5073029;28;20298;-69
2021/01/10 12:28:10;;;;;;;9.55;3.92;;;3.50;99.90;;;;;;5072797;28;20211;-70
2021/01/10 12:30:36;;;;;;;6.88;3.25;;;3.60;99.90;;;;;;5072994;28;20692;-70
2021/01/10 12:33:03;;;;;;;5.32;3.75;;;3.60;99.90;;;;;;5073233;28;20290;-70
2021/01/10 12:35:29;;;;;;;5.55;3.30;;;3.70;99.90;;;;;;5072901;28;20289;-70
2021/01/10 12:37:55;;;;;;;4.90;3.75;;;3.70;99.90;;;;;;5073140;28;20234;-70
2021/01/10 12:40:23;;;;;;;11.77;4.65;;;3.80;99.90;;;;;;5073152;28;20310;-70
2021/01/10 12:42:49;;;;;;;6.38;4.07;;;3.80;99.90;;;;;;5073077;28;20206;-71
2021/01/10 12:45:17;;;;;;;6.53;3.90;;;3.80;99.90;;;;;;5073090;28;20217;-70
2021/01/10 12:47:44;;;;;;;4.68;3.20;;;3.80;99.90;;;;;;5072939;28;20330;-70
2021/01/10 12:50:12;;;;;;;4.88;3.42;;;3.80;99.90;;;;;;5073115;28;20296;-71
2021/01/10 12:52:39;;;;;;;4.75;3.20;;;3.70;99.90;;;;;;5073078;28;20203;-70
2021/01/10 12:55:07;;;;;;;8.25;3.88;;;3.80;99.90;;;;;;5073076;28;20202;-70
2021/01/10 12:57:35;;;;;;;5.68;3.50;;;3.80;99.90;;;;;;5072304;28;20226;-70